Time;durP1;ratioP1;P1;durP2;ratioP2;P2;SDS_P1;SDS_P2;PMS_P1;PMS_P2;Temp;Humidity;BMP_temperature;BMP_pressure;BME280_temperature;BME280_humidity;BME280_pressure;Samples;Min_cycle;Max_cycle;Signal;HPM_P1;HPM_P2
2023/04/30 00:01:29;;;;;;;9.68;4.22;;;7.60;99.90;;;;;;5155210;27;20035;-69
2023/04/30 00:03:54;;;;;;;9.32;4.03;;;7.50;99.90;;;;;;5137743;27;20111;-68
2023/04/30 00:06:20;;;;;;;12.70;3.92;;;7.40;99.90;;;;;;5134298;27;20415;-68
2023/04/30 00:08:46;;;;;;;13.82;4.43;;;7.40;99.90;;;;;;5133935;27;20047;-68
2023/04/30 00:11:11;;;;;;;15.15;4.68;;;7.30;99.90;;;;;;5133476;27;20480;-68
2023/04/30 00:13:37;;;;;;;13.90;4.20;;;7.30;99.90;;;;;;5133317;27;20101;-68
2023/04/30 00:16:03;;;;;;;12.45;4.50;;;7.30;99.90;;;;;;5144978;27;20047;-69
2023/04/30 00:18:29;;;;;;;15.95;5.25;;;7.30;99.90;;;;;;5134890;27;20487;-71
2023/04/30 00:20:55;;;;;;;9.95;4.15;;;7.30;99.90;;;;;;5154395;27;20122;-70
2023/04/30 00:23:20;;;;;;;10.43;4.80;;;7.30;99.90;;;;;;5139628;27;20180;-68
2023/04/30 00:25:46;;;;;;;10.23;4.18;;;7.30;99.90;;;;;;5132676;27;20047;-70
2023/04/30 00:28:12;;;;;;;12.52;4.65;;;7.30;99.90;;;;;;5134127;27;20047;-69
2023/04/30 00:30:37;;;;;;;13.32;5.45;;;7.30;99.90;;;;;;5133460;27;20039;-68
2023/04/30 00:33:04;;;;;;;12.68;4.38;;;7.30;99.90;;;;;;5145350;27;20043;-68
2023/04/30 00:35:30;;;;;;;10.10;4.63;;;7.30;99.90;;;;;;5151386;27;20448;-69
2023/04/30 00:37:55;;;;;;;11.63;3.97;;;7.20;99.90;;;;;;5153986;27;20042;-68
2023/04/30 00:40:21;;;;;;;8.88;4.40;;;7.10;99.90;;;;;;5141203;27;20081;-68
2023/04/30 00:42:47;;;;;;;12.27;4.97;;;7.10;99.90;;;;;;5132949;27;20054;-68
2023/04/30 00:45:13;;;;;;;;;;;7.10;99.90;;;;;;5152514;27;20878;-69
2023/04/30 00:47:39;;;;;;;11.65;4.97;;;7.10;99.90;;;;;;5153180;27;19931;-69
2023/04/30 00:50:06;;;;;;;11.70;5.15;;;7.00;99.90;;;;;;5153039;27;20074;-68
2023/04/30 00:52:31;;;;;;;;;;;7.00;99.90;;;;;;5154827;27;20488;-68
2023/04/30 00:54:57;;;;;;;10.50;4.13;;;6.90;99.90;;;;;;5152965;27;19923;-69
2023/04/30 00:57:25;;;;;;;12.77;5.25;;;6.90;99.90;;;;;;5151297;27;20047;-68
2023/04/30 00:59:52;;;;;;;15.27;5.40;;;6.90;99.90;;;;;;5133178;27;20132;-68
2023/04/30 01:02:18;;;;;;;13.82;6.05;;;6.90;99.90;;;;;;5143507;27;20050;-68
2023/04/30 01:04:45;;;;;;;14.52;5.88;;;7.00;99.90;;;;;;5153200;27;20038;-69
2023/04/30 01:07:10;;;;;;;15.55;4.50;;;7.00;99.90;;;;;;5145041;27;20054;-69
2023/04/30 01:09:36;;;;;;;29.95;4.97;;;7.00;99.90;;;;;;5137836;27;20043;-68
2023/04/30 01:12:08;;;;;;;10.90;3.97;;;7.00;99.90;;;;;;5153587;27;20039;-68
2023/04/30 01:14:52;;;;;;;7.97;3.92;;;7.00;99.90;;;;;;5154091;27;20081;-67
2023/04/30 01:17:42;;;;;;;12.05;4.70;;;6.90;99.90;;;;;;5153500;27;20050;-72
2023/04/30 01:20:10;;;;;;;14.60;4.93;;;6.80;99.90;;;;;;5153253;27;20053;-68
2023/04/30 01:22:56;;;;;;;14.02;4.93;;;6.80;99.90;;;;;;5152420;27;20042;-68
2023/04/30 01:25:40;;;;;;;12.02;4.60;;;6.80;99.90;;;;;;5153081;27;20130;-68
2023/04/30 01:28:11;;;;;;;13.80;4.72;;;6.80;99.90;;;;;;5137000;27;20047;-68
2023/04/30 01:30:39;;;;;;;12.60;4.60;;;6.80;99.90;;;;;;5132823;27;20086;-68
2023/04/30 01:33:05;;;;;;;9.30;4.38;;;6.70;99.90;;;;;;5132997;27;20519;-68
2023/04/30 01:35:41;;;;;;;12.30;4.72;;;6.70;99.90;;;;;;5153079;27;20078;-69
2023/04/30 01:38:27;;;;;;;12.15;4.72;;;6.70;99.90;;;;;;5153657;27;20050;-68
2023/04/30 01:41:00;;;;;;;13.90;4.80;;;6.70;99.90;;;;;;5151942;27;20182;-68
2023/04/30 01:43:47;;;;;;;19.80;5.45;;;6.60;99.90;;;;;;5133955;27;20051;-69
2023/04/30 01:46:28;;;;;;;11.85;4.72;;;6.60;99.90;;;;;;5151826;27;20399;-71
2023/04/30 01:49:07;;;;;;;12.88;4.88;;;6.50;99.90;;;;;;5136578;27;20102;-69
2023/04/30 01:51:45;;;;;;;15.80;6.00;;;6.40;99.90;;;;;;5132759;27;20049;-71
2023/04/30 01:54:38;;;;;;;12.98;5.00;;;6.40;99.90;;;;;;5113639;27;20138;-71
2023/04/30 01:57:07;;;;;;;9.10;5.25;;;6.30;99.90;;;;;;5138420;27;20042;-68
2023/04/30 01:59:37;;;;;;;11.57;5.38;;;6.30;99.90;;;;;;5153234;27;20680;-68
2023/04/30 02:02:03;;;;;;;14.70;5.55;;;6.30;99.90;;;;;;5152398;27;20661;-68
2023/04/30 02:04:28;;;;;;;13.88;5.00;;;6.30;99.90;;;;;;5152417;27;20126;-67
2023/04/30 02:06:54;;;;;;;14.13;5.72;;;6.20;99.90;;;;;;5152917;27;20054;-68
2023/04/30 02:09:22;;;;;;;12.98;5.22;;;6.10;99.90;;;;;;5146989;27;20047;-74
2023/04/30 02:11:48;;;;;;;17.48;5.55;;;6.10;99.90;;;;;;5131770;27;20086;-68
2023/04/30 02:14:14;;;;;;;18.60;6.15;;;6.10;99.90;;;;;;5113756;27;20069;-69
2023/04/30 02:16:40;;;;;;;13.30;4.72;;;6.10;99.90;;;;;;5132388;27;20491;-68
2023/04/30 02:19:06;;;;;;;12.57;5.57;;;6.10;99.90;;;;;;5130737;27;20420;-68
2023/04/30 02:21:31;;;;;;;10.32;5.00;;;6.10;99.90;;;;;;5132178;27;20088;-68
2023/04/30 02:23:57;;;;;;;11.32;4.55;;;6.10;99.90;;;;;;5131635;27;20496;-68
2023/04/30 02:26:22;;;;;;;12.55;4.82;;;6.00;99.90;;;;;;5131223;27;20055;-68
2023/04/30 02:28:48;;;;;;;12.50;5.18;;;6.10;99.90;;;;;;5138609;27;20077;-68
2023/04/30 02:31:14;;;;;;;11.13;4.43;;;6.10;99.90;;;;;;5134382;27;20129;-68
2023/04/30 02:33:40;;;;;;;12.13;4.60;;;6.10;99.90;;;;;;5151970;27;20066;-68
2023/04/30 02:36:05;;;;;;;12.07;5.75;;;6.10;99.90;;;;;;5151775;27;20226;-69
2023/04/30 02:38:31;;;;;;;12.25;4.53;;;6.00;99.90;;;;;;5132102;27;20484;-69
2023/04/30 02:40:57;;;;;;;12.32;4.75;;;6.00;99.90;;;;;;5130381;27;20051;-70
2023/04/30 02:43:22;;;;;;;9.25;4.30;;;6.00;99.90;;;;;;5113019;27;20089;-68
2023/04/30 02:45:48;;;;;;;9.82;4.30;;;6.00;99.90;;;;;;5138382;27;20046;-75
2023/04/30 02:48:14;;;;;;;9.57;4.82;;;5.90;99.90;;;;;;5152062;27;20502;-68
2023/04/30 02:50:40;;;;;;;11.60;4.28;;;5.90;99.90;;;;;;5151670;27;20042;-68
2023/04/30 02:53:05;;;;;;;12.82;4.95;;;5.90;99.90;;;;;;5147612;27;20502;-67
2023/04/30 02:55:31;;;;;;;9.85;4.30;;;5.80;99.90;;;;;;5133100;27;20446;-68
2023/04/30 02:57:57;;;;;;;12.48;5.00;;;5.80;99.90;;;;;;5151941;27;20073;-68
2023/04/30 03:00:23;;;;;;;9.57;5.25;;;5.70;99.90;;;;;;5152273;27;20043;-69
2023/04/30 03:02:49;;;;;;;9.55;5.13;;;5.70;99.90;;;;;;5120244;28;20112;-75
2023/04/30 03:05:15;;;;;;;10.13;4.40;;;5.70;99.90;;;;;;5130946;28;20089;-68
2023/04/30 03:07:41;;;;;;;21.38;5.47;;;5.70;99.90;;;;;;5133280;27;20464;-68
2023/04/30 03:10:07;;;;;;;12.02;4.80;;;5.80;99.90;;;;;;5150471;27;20041;-68
2023/04/30 03:12:33;;;;;;;10.88;4.60;;;5.80;99.90;;;;;;5152169;27;20045;-69
2023/04/30 03:14:58;;;;;;;10.73;5.00;;;5.80;99.90;;;;;;5147448;27;20038;-68
2023/04/30 03:17:24;;;;;;;11.38;4.63;;;5.80;99.90;;;;;;5131074;28;20087;-68
2023/04/30 03:19:50;;;;;;;13.55;5.03;;;5.70;99.90;;;;;;5130507;28;20036;-75
2023/04/30 03:22:18;;;;;;;15.48;4.97;;;5.70;99.90;;;;;;5142413;27;20046;-68
2023/04/30 03:24:44;;;;;;;12.25;5.53;;;5.60;99.90;;;;;;5133140;27;20107;-68
2023/04/30 03:27:10;;;;;;;9.52;4.40;;;5.60;99.90;;;;;;5151593;27;20039;-68
2023/04/30 03:29:36;;;;;;;9.18;4.05;;;5.60;99.90;;;;;;5151976;27;20035;-68
2023/04/30 03:32:01;;;;;;;14.38;5.65;;;5.60;99.90;;;;;;5133055;27;20047;-68
2023/04/30 03:34:27;;;;;;;10.60;4.57;;;5.50;99.90;;;;;;5112199;28;20058;-70
2023/04/30 03:36:53;;;;;;;11.80;5.07;;;5.40;99.90;;;;;;5130492;28;20043;-75
2023/04/30 03:39:18;;;;;;;17.60;4.43;;;5.40;99.90;;;;;;5130886;28;20142;-68
2023/04/30 03:41:44;;;;;;;11.75;4.85;;;5.40;99.90;;;;;;5130720;28;20040;-71
2023/04/30 03:44:14;;;;;;;12.02;5.70;;;5.40;99.90;;;;;;5130587;28;20051;-68
2023/04/30 03:46:42;;;;;;;9.13;4.90;;;5.40;99.90;;;;;;5131160;28;20066;-68
2023/04/30 03:49:07;;;;;;;11.27;4.40;;;5.40;99.90;;;;;;5144183;27;20074;-70
2023/04/30 03:51:38;;;;;;;15.98;4.95;;;5.40;99.90;;;;;;5129384;28;20086;-70
2023/04/30 03:54:05;;;;;;;9.32;5.03;;;5.40;99.90;;;;;;5151194;27;20097;-68
2023/04/30 03:56:32;;;;;;;14.93;4.70;;;5.40;99.90;;;;;;5154918;27;20051;-69
2023/04/30 03:58:58;;;;;;;10.70;5.10;;;5.40;99.90;;;;;;5154986;27;20054;-68
2023/04/30 04:01:23;;;;;;;10.10;4.38;;;5.40;99.90;;;;;;5155799;27;20399;-69
2023/04/30 04:03:49;;;;;;;12.80;5.20;;;5.30;99.90;;;;;;5145644;27;20115;-67
2023/04/30 04:06:15;;;;;;;11.38;4.72;;;5.30;99.90;;;;;;5134252;27;20031;-68
2023/04/30 04:08:43;;;;;;;12.00;4.65;;;5.30;99.90;;;;;;5134805;27;20066;-68
2023/04/30 04:11:11;;;;;;;8.25;4.53;;;5.30;99.90;;;;;;5152613;27;20043;-68
2023/04/30 04:13:36;;;;;;;15.48;5.22;;;5.30;99.90;;;;;;5155093;27;20129;-70
2023/04/30 04:16:02;;;;;;;9.82;4.28;;;5.30;99.90;;;;;;5136726;27;20126;-69
2023/04/30 04:18:28;;;;;;;12.40;4.88;;;5.20;99.90;;;;;;5153668;27;20126;-72
2023/04/30 04:20:55;;;;;;;16.88;5.47;;;5.10;99.90;;;;;;5154980;27;20039;-69
2023/04/30 04:23:21;;;;;;;13.38;5.05;;;5.10;99.90;;;;;;5137964;27;20127;-68
2023/04/30 04:25:48;;;;;;;11.50;5.28;;;5.10;99.90;;;;;;5149100;27;20042;-68
2023/04/30 04:28:15;;;;;;;11.65;5.38;;;5.10;99.90;;;;;;5154567;27;20069;-68
2023/04/30 04:30:42;;;;;;;19.48;5.55;;;5.10;99.90;;;;;;5154873;27;20043;-68
2023/04/30 04:33:08;;;;;;;;;;;5.10;99.90;;;;;;5153995;27;20051;-69
2023/04/30 04:35:33;;;;;;;19.85;6.20;;;5.10;99.90;;;;;;5134746;27;20375;-69
2023/04/30 04:38:00;;;;;;;10.30;4.93;;;5.10;99.90;;;;;;5150038;27;20042;-76
2023/04/30 04:40:26;;;;;;;11.50;4.97;;;5.10;99.90;;;;;;5141577;27;20035;-68
2023/04/30 04:42:52;;;;;;;;;;;5.10;99.90;;;;;;5154942;27;20055;-68
2023/04/30 04:45:19;;;;;;;12.95;5.53;;;5.10;99.90;;;;;;5153987;27;20630;-68
2023/04/30 04:47:45;;;;;;;13.43;5.80;;;5.20;99.90;;;;;;5154323;27;20046;-68
2023/04/30 04:50:11;;;;;;;;;;;5.20;99.90;;;;;;5153860;27;20107;-68
2023/04/30 04:52:36;;;;;;;12.60;5.97;;;5.30;99.90;;;;;;5152257;27;20383;-68
2023/04/30 04:55:03;;;;;;;10.27;5.22;;;5.40;99.90;;;;;;5140674;27;20046;-69
2023/04/30 04:57:29;;;;;;;13.20;5.57;;;5.50;99.90;;;;;;5144070;27;20087;-68
2023/04/30 04:59:54;;;;;;;13.27;5.22;;;5.60;99.90;;;;;;5133785;27;20086;-68
2023/04/30 05:02:22;;;;;;;14.13;5.03;;;5.80;99.90;;;;;;5132755;27;20042;-68
2023/04/30 05:04:49;;;;;;;12.38;5.78;;;5.90;99.90;;;;;;5132518;27;20487;-71
2023/04/30 05:07:16;;;;;;;18.63;5.60;;;6.00;99.90;;;;;;5153877;27;20151;-68
2023/04/30 05:09:43;;;;;;;15.45;5.53;;;6.10;99.90;;;;;;5153401;27;20107;-68
2023/04/30 05:12:09;;;;;;;10.63;5.00;;;6.30;99.90;;;;;;5153474;27;20494;-69
2023/04/30 05:14:36;;;;;;;11.27;5.22;;;6.30;99.90;;;;;;5153922;27;20092;-68
2023/04/30 05:17:01;;;;;;;11.38;5.35;;;6.40;99.90;;;;;;5152636;27;20535;-70
2023/04/30 05:19:27;;;;;;;11.90;5.07;;;6.50;99.90;;;;;;5152949;27;20117;-70
2023/04/30 05:21:53;;;;;;;8.95;4.78;;;6.60;99.90;;;;;;5143637;27;20086;-72
2023/04/30 05:24:19;;;;;;;14.43;4.95;;;6.70;99.90;;;;;;5114146;27;20129;-70
2023/04/30 05:26:44;;;;;;;14.60;5.57;;;6.80;99.90;;;;;;5132855;27;20436;-68
2023/04/30 05:29:10;;;;;;;12.48;5.07;;;6.90;99.90;;;;;;5136428;27;20039;-67
2023/04/30 05:31:36;;;;;;;;;;;7.00;99.90;;;;;;5154534;27;20082;-68
2023/04/30 05:34:02;;;;;;;9.32;4.45;;;7.10;99.90;;;;;;5152170;27;20028;-68
2023/04/30 05:36:28;;;;;;;8.32;3.88;;;7.20;99.90;;;;;;5151314;27;20050;-67
2023/04/30 05:38:54;;;;;;;12.50;4.00;;;7.30;99.90;;;;;;5139296;27;20117;-68
2023/04/30 05:41:20;;;;;;;12.43;4.15;;;7.40;99.90;;;;;;5133720;27;20559;-68
2023/04/30 05:43:46;;;;;;;9.15;3.85;;;7.40;99.90;;;;;;5153297;27;20067;-68
2023/04/30 05:46:12;;;;;;;11.85;3.85;;;7.40;99.90;;;;;;5124060;27;20104;-67
2023/04/30 05:48:38;;;;;;;12.32;3.92;;;7.40;99.90;;;;;;5113573;27;20051;-68
2023/04/30 05:51:06;;;;;;;8.57;3.35;;;7.50;99.90;;;;;;5152197;27;20051;-68
2023/04/30 05:53:31;;;;;;;10.30;3.90;;;7.50;99.90;;;;;;5152520;27;20107;-68
2023/04/30 05:55:57;;;;;;;7.72;3.33;;;7.50;99.90;;;;;;5152403;27;20043;-68
2023/04/30 05:58:24;;;;;;;11.98;3.63;;;7.60;99.90;;;;;;5152256;27;20038;-70
2023/04/30 06:00:50;;;;;;;10.38;3.55;;;7.60;99.90;;;;;;5152590;27;20044;-68
2023/04/30 06:03:20;;;;;;;10.52;3.38;;;7.60;99.90;;;;;;5145607;27;20050;-68
2023/04/30 06:05:46;;;;;;;9.30;3.17;;;7.70;99.90;;;;;;5113558;27;20050;-67
2023/04/30 06:08:12;;;;;;;10.52;3.38;;;7.70;99.90;;;;;;5148800;27;20043;-68
2023/04/30 06:10:38;;;;;;;5.97;2.72;;;7.80;99.90;;;;;;5133737;27;20053;-69
2023/04/30 06:13:04;;;;;;;10.52;3.65;;;7.80;99.90;;;;;;5153070;27;20049;-67
2023/04/30 06:15:30;;;;;;;11.48;2.83;;;7.90;99.90;;;;;;5152437;27;20134;-69
2023/04/30 06:17:56;;;;;;;9.50;2.85;;;7.90;99.90;;;;;;5151662;27;20078;-68
2023/04/30 06:20:21;;;;;;;8.63;3.05;;;8.00;99.90;;;;;;5151459;27;20514;-67
2023/04/30 06:22:47;;;;;;;8.10;2.50;;;8.00;99.90;;;;;;5119741;27;20419;-68
2023/04/30 06:25:13;;;;;;;8.00;2.50;;;8.10;99.90;;;;;;5150345;27;20612;-67
2023/04/30 06:27:38;;;;;;;9.38;2.88;;;8.10;99.90;;;;;;5145303;27;20707;-68
2023/04/30 06:30:05;;;;;;;10.90;3.20;;;8.20;99.90;;;;;;5131909;27;20047;-68
2023/04/30 06:32:31;;;;;;;4.93;2.50;;;8.20;99.90;;;;;;5112813;27;20039;-68
2023/04/30 06:34:57;;;;;;;8.40;2.50;;;8.20;99.90;;;;;;5151360;27;20053;-68
2023/04/30 06:37:23;;;;;;;7.75;2.92;;;8.30;99.90;;;;;;5145415;27;20377;-70
2023/04/30 06:39:50;;;;;;;9.50;2.50;;;8.40;99.90;;;;;;5131178;27;20058;-68
2023/04/30 06:42:16;;;;;;;12.13;2.60;;;8.40;99.90;;;;;;5131167;27;20051;-69
2023/04/30 06:44:41;;;;;;;10.45;2.88;;;8.40;99.90;;;;;;5113246;27;20142;-68
2023/04/30 06:47:07;;;;;;;12.80;4.13;;;8.40;99.90;;;;;;5131377;27;20088;-68
2023/04/30 06:49:33;;;;;;;6.93;2.78;;;8.50;99.90;;;;;;5130561;27;20387;-69
2023/04/30 06:51:58;;;;;;;9.82;2.85;;;8.50;99.90;;;;;;5145631;27;20087;-71
2023/04/30 06:54:26;;;;;;;9.55;2.70;;;8.60;99.90;;;;;;5138432;27;20115;-72
2023/04/30 06:56:52;;;;;;;10.02;3.15;;;8.60;99.90;;;;;;5131896;27;20043;-68
2023/04/30 06:59:18;;;;;;;8.60;2.60;;;8.70;99.90;;;;;;5135881;27;20043;-70
2023/04/30 07:01:43;;;;;;;11.57;3.35;;;8.70;99.90;;;;;;5152373;27;20038;-72
2023/04/30 07:04:09;;;;;;;7.82;2.60;;;8.80;99.90;;;;;;5130920;27;20119;-68
2023/04/30 07:06:35;;;;;;;10.70;3.22;;;8.90;99.90;;;;;;5137278;27;20078;-68
2023/04/30 07:09:02;;;;;;;8.18;2.60;;;8.90;99.90;;;;;;5152363;27;20046;-68
2023/04/30 07:11:27;;;;;;;12.00;3.15;;;9.00;99.90;;;;;;5137567;27;20046;-70
2023/04/30 07:13:53;;;;;;;8.85;2.92;;;9.00;99.90;;;;;;5151653;27;20042;-68
2023/04/30 07:16:19;;;;;;;19.58;3.13;;;9.10;99.90;;;;;;5132959;27;20049;-70
2023/04/30 07:18:47;;;;;;;8.07;3.00;;;9.10;99.90;;;;;;5151155;27;20094;-68
2023/04/30 07:21:13;;;;;;;11.98;3.08;;;9.20;99.90;;;;;;5152116;27;20050;-71
2023/04/30 07:23:39;;;;;;;11.38;2.95;;;9.20;99.90;;;;;;5131570;27;20649;-68
2023/04/30 07:26:05;;;;;;;6.75;2.83;;;9.30;99.90;;;;;;5112316;27;20051;-71
2023/04/30 07:28:30;;;;;;;14.52;3.45;;;9.30;99.90;;;;;;5137552;27;20051;-69
2023/04/30 07:30:56;;;;;;;12.15;3.13;;;9.30;99.90;;;;;;5147592;27;20031;-74
2023/04/30 07:33:22;;;;;;;7.13;2.83;;;9.30;99.90;;;;;;5148175;27;20046;-71
2023/04/30 07:35:47;;;;;;;9.40;2.60;;;9.40;99.90;;;;;;5120087;27;20551;-70
2023/04/30 07:38:13;;;;;;;9.75;2.58;;;9.40;99.90;;;;;;5141248;27;20499;-66
2023/04/30 07:40:39;;;;;;;11.75;2.67;;;9.30;99.90;;;;;;5146889;27;20107;-66
2023/04/30 07:43:05;;;;;;;12.45;3.10;;;9.30;99.90;;;;;;5135085;27;20389;-66
2023/04/30 07:45:33;;;;;;;8.20;2.47;;;9.40;99.90;;;;;;5134638;27;20119;-67
2023/04/30 07:47:59;;;;;;;7.45;2.60;;;9.50;99.90;;;;;;5140119;27;20065;-67
2023/04/30 07:50:27;;;;;;;;;;;9.60;99.90;;;;;;5126354;27;20047;-67
2023/04/30 07:52:52;;;;;;;;;;;9.60;99.90;;;;;;5142995;27;20432;-72
2023/04/30 07:55:18;;;;;;;8.95;2.97;;;9.60;99.90;;;;;;5154765;27;19923;-71
2023/04/30 07:57:44;;;;;;;8.38;2.85;;;9.70;99.90;;;;;;5143525;27;20483;-71
2023/04/30 08:00:10;;;;;;;7.65;2.13;;;9.80;99.90;;;;;;5143855;27;20054;-68
2023/04/30 08:02:36;;;;;;;11.68;2.50;;;9.90;99.90;;;;;;5145906;27;20073;-68
2023/04/30 08:05:02;;;;;;;11.48;3.53;;;10.00;99.90;;;;;;5145793;27;20039;-67
2023/04/30 08:07:28;;;;;;;8.77;2.58;;;10.10;99.90;;;;;;5142437;27;20384;-69
2023/04/30 08:09:54;;;;;;;11.80;2.35;;;10.10;99.90;;;;;;5150163;27;20037;-68
2023/04/30 08:12:19;;;;;;;9.40;2.80;;;10.20;99.90;;;;;;5151836;27;20100;-71
2023/04/30 08:14:45;;;;;;;6.25;2.30;;;10.30;99.90;;;;;;5131679;27;20086;-68
2023/04/30 08:17:11;;;;;;;11.90;2.20;;;10.40;99.90;;;;;;5142717;27;20057;-68
2023/04/30 08:19:36;;;;;;;9.52;2.63;;;10.50;99.90;;;;;;5129960;27;20043;-68
2023/04/30 08:22:02;;;;;;;7.40;2.35;;;10.60;99.90;;;;;;5140844;27;20559;-68
2023/04/30 08:24:27;;;;;;;9.18;2.70;;;10.60;99.90;;;;;;5127472;27;20043;-68
2023/04/30 08:26:53;;;;;;;8.88;2.80;;;10.60;99.90;;;;;;5133792;27;20045;-69
2023/04/30 08:29:19;;;;;;;9.48;2.70;;;10.60;99.90;;;;;;5133994;27;20067;-69
2023/04/30 08:31:45;;;;;;;8.07;2.42;;;10.70;99.90;;;;;;5143208;27;20050;-74
2023/04/30 08:34:10;;;;;;;13.18;3.20;;;10.70;99.90;;;;;;5147894;27;20053;-68
2023/04/30 08:36:36;;;;;;;13.25;3.17;;;10.70;99.90;;;;;;5154029;27;20535;-69
2023/04/30 08:39:02;;;;;;;8.57;2.22;;;10.80;99.90;;;;;;5150190;27;20039;-68
2023/04/30 08:41:33;;;;;;;10.10;2.65;;;10.80;99.90;;;;;;5132776;27;20126;-70
2023/04/30 08:44:02;;;;;;;7.85;2.45;;;10.90;99.90;;;;;;5133588;27;20432;-71
2023/04/30 08:46:31;;;;;;;8.68;2.55;;;10.90;99.90;;;;;;5138330;27;20050;-71
2023/04/30 08:48:57;;;;;;;9.00;2.30;;;10.90;99.90;;;;;;5134160;27;20445;-68
2023/04/30 08:51:24;;;;;;;8.68;2.20;;;11.00;99.90;;;;;;5132620;27;20043;-65
2023/04/30 08:53:53;;;;;;;9.25;2.88;;;11.10;99.90;;;;;;5132891;27;20046;-72
2023/04/30 08:56:20;;;;;;;8.85;2.60;;;11.20;99.90;;;;;;5116081;27;20123;-74
2023/04/30 08:58:45;;;;;;;;;;;11.30;99.90;;;;;;5143848;27;20053;-73
2023/04/30 09:01:12;;;;;;;9.85;2.42;;;11.20;99.90;;;;;;5152623;27;19922;-73
2023/04/30 09:03:38;;;;;;;5.78;2.38;;;11.30;99.90;;;;;;5139045;27;20051;-72
2023/04/30 09:06:03;;;;;;;8.60;2.67;;;11.30;99.90;;;;;;5138567;27;21393;-66
2023/04/30 09:08:46;;;;;;;7.07;2.08;;;11.40;99.90;;;;;;5136106;27;20118;-70
2023/04/30 09:11:30;;;;;;;6.70;2.20;;;11.40;99.90;;;;;;5135211;27;20483;-67
2023/04/30 09:14:00;;;;;;;6.78;2.40;;;11.50;99.90;;;;;;5146392;27;20078;-68
2023/04/30 09:16:31;;;;;;;9.68;2.47;;;11.50;99.90;;;;;;5144154;27;20038;-73
2023/04/30 09:18:58;;;;;;;6.78;2.17;;;11.60;99.90;;;;;;5140024;27;20047;-65
2023/04/30 09:21:35;;;;;;;5.95;2.20;;;11.60;99.90;;;;;;5138526;27;20055;-67
2023/04/30 09:24:03;;;;;;;4.75;1.92;;;11.70;99.90;;;;;;5135481;27;20050;-70
2023/04/30 09:26:33;;;;;;;6.28;2.53;;;11.70;99.90;;;;;;5141729;27;20039;-73
2023/04/30 09:28:59;;;;;;;7.05;2.17;;;11.80;99.90;;;;;;5147123;27;20051;-71
2023/04/30 09:31:26;;;;;;;9.25;2.30;;;11.90;99.90;;;;;;5136934;27;20050;-70
2023/04/30 09:33:52;;;;;;;;;;;12.00;99.90;;;;;;5134698;27;20046;-72
2023/04/30 09:36:18;;;;;;;6.00;2.03;;;12.00;99.90;;;;;;5138840;27;19927;-69
2023/04/30 09:38:44;;;;;;;6.35;2.20;;;12.00;99.90;;;;;;5147841;27;20043;-68
2023/04/30 09:41:25;;;;;;;13.88;2.83;;;12.00;99.90;;;;;;5143348;27;20043;-68
2023/04/30 09:43:52;;;;;;;8.95;2.22;;;12.10;99.90;;;;;;5149056;27;20054;-67
2023/04/30 09:46:19;;;;;;;6.22;2.28;;;12.20;99.90;;;;;;5131089;27;20057;-67
2023/04/30 09:48:45;;;;;;;7.60;2.92;;;12.20;99.90;;;;;;5143575;27;20518;-67
2023/04/30 09:51:10;;;;;;;4.93;2.15;;;12.20;99.90;;;;;;5136161;27;20035;-68
2023/04/30 09:53:42;;;;;;;7.63;2.20;;;12.20;99.90;;;;;;5130507;27;20070;-67
2023/04/30 09:56:10;;;;;;;5.88;1.80;;;12.20;99.90;;;;;;5129969;27;20131;-67
2023/04/30 09:58:37;;;;;;;7.10;2.08;;;12.30;99.90;;;;;;5146949;27;20049;-68
2023/04/30 10:01:10;;;;;;;5.22;2.10;;;12.40;99.90;;;;;;5139681;27;20047;-69
2023/04/30 10:03:38;;;;;;;5.60;2.17;;;12.60;99.90;;;;;;5133622;27;20794;-70
2023/04/30 10:06:06;;;;;;;5.20;2.00;;;12.70;99.90;;;;;;5130424;27;20051;-70
2023/04/30 10:08:42;;;;;;;7.55;2.10;;;12.90;99.90;;;;;;5126227;27;20091;-74
2023/04/30 10:11:15;;;;;;;9.63;3.05;;;13.10;99.90;;;;;;5134749;27;20392;-69
2023/04/30 10:13:54;;;;;;;6.55;1.80;;;13.20;99.90;;;;;;5130371;27;20043;-68
2023/04/30 10:16:43;;;;;;;9.20;2.47;;;13.20;99.90;;;;;;5116632;27;20488;-70
2023/04/30 10:19:18;;;;;;;10.13;2.38;;;13.20;99.90;;;;;;5131238;27;20082;-65
2023/04/30 10:21:45;;;;;;;8.57;2.50;;;13.30;99.90;;;;;;5140919;27;20080;-70
2023/04/30 10:24:18;;;;;;;7.90;2.28;;;13.20;99.90;;;;;;5151171;27;20051;-68
2023/04/30 10:26:45;;;;;;;8.93;2.17;;;13.20;99.90;;;;;;5149026;27;20066;-69
2023/04/30 10:29:12;;;;;;;11.48;3.20;;;13.40;99.90;;;;;;5137362;27;20050;-64
2023/04/30 10:31:40;;;;;;;8.18;2.03;;;13.40;99.90;;;;;;5142909;27;20043;-64
2023/04/30 10:34:25;;;;;;;5.70;1.90;;;13.50;99.90;;;;;;5143799;27;20054;-71
2023/04/30 10:36:57;;;;;;;8.63;2.13;;;13.60;99.90;;;;;;5139284;27;20043;-72
2023/04/30 10:39:27;;;;;;;6.55;1.95;;;13.70;99.90;;;;;;5143976;27;20046;-69
2023/04/30 10:42:02;;;;;;;4.88;1.65;;;13.90;99.90;;;;;;5140773;27;20042;-70
2023/04/30 10:44:32;;;;;;;6.90;2.20;;;14.00;99.90;;;;;;5132028;27;20067;-70
2023/04/30 10:47:00;;;;;;;11.10;2.13;;;14.00;99.90;;;;;;5142703;27;20054;-72
2023/04/30 10:49:26;;;;;;;8.70;1.98;;;14.20;99.90;;;;;;5130115;27;20365;-67
2023/04/30 10:51:57;;;;;;;8.93;1.98;;;14.30;99.90;;;;;;5129443;27;20115;-69
2023/04/30 10:54:31;;;;;;;5.47;2.08;;;14.50;99.90;;;;;;5114976;27;20099;-73
2023/04/30 10:57:16;;;;;;;6.63;1.60;;;14.70;99.90;;;;;;5150101;27;20046;-70
2023/04/30 11:00:12;;;;;;;8.05;1.90;;;14.80;99.90;;;;;;5143993;27;20047;-71
2023/04/30 11:02:44;;;;;;;5.20;1.67;;;15.10;99.90;;;;;;5132895;27;20063;-72
2023/04/30 11:05:12;;;;;;;6.75;2.15;;;15.30;99.90;;;;;;5118599;27;20102;-66
2023/04/30 11:07:47;;;;;;;3.33;1.45;;;15.50;99.90;;;;;;5138272;27;20118;-73
2023/04/30 11:10:14;;;;;;;6.40;1.90;;;15.70;99.90;;;;;;5129764;27;20050;-66
2023/04/30 11:12:51;;;;;;;3.72;1.67;;;15.90;99.90;;;;;;5138311;27;20049;-69
2023/04/30 11:15:19;;;;;;;3.45;1.40;;;16.10;99.90;;;;;;5137376;27;20074;-69
2023/04/30 11:17:48;;;;;;;4.70;1.70;;;16.40;99.90;;;;;;5140063;27;20047;-68
2023/04/30 11:20:19;;;;;;;3.72;1.70;;;16.80;99.90;;;;;;5143848;27;20077;-69
2023/04/30 11:22:45;;;;;;;7.05;1.90;;;17.20;99.90;;;;;;5142294;27;20555;-73
2023/04/30 11:25:12;;;;;;;;;;;17.70;99.90;;;;;;5143000;27;20150;-72
2023/04/30 11:27:45;;;;;;;4.90;2.13;;;18.20;97.60;;;;;;5134615;27;19927;-70
2023/04/30 11:30:16;;;;;;;5.15;1.90;;;18.80;99.90;;;;;;5135435;27;20069;-69
2023/04/30 11:32:46;;;;;;;5.07;1.77;;;19.50;99.90;;;;;;5143030;27;20086;-77
2023/04/30 11:35:16;;;;;;;5.82;1.92;;;20.10;99.90;;;;;;5138343;27;20547;-71
2023/04/30 11:37:43;;;;;;;3.63;1.63;;;20.60;99.90;;;;;;5136269;27;20065;-73
2023/04/30 11:40:11;;;;;;;5.30;1.40;;;21.10;98.90;;;;;;5138339;27;20043;-73
2023/04/30 11:42:39;;;;;;;5.28;1.80;;;21.50;98.60;;;;;;5130198;27;20051;-71
2023/04/30 11:45:06;;;;;;;2.65;1.48;;;21.90;96.90;;;;;;5135476;27;20055;-72
2023/04/30 11:47:39;;;;;;;4.32;1.92;;;22.30;95.20;;;;;;5130000;27;20057;-66
2023/04/30 11:50:06;;;;;;;5.22;1.50;;;22.50;88.90;;;;;;5129354;27;20122;-68
2023/04/30 11:52:32;;;;;;;4.63;1.65;;;22.70;92.10;;;;;;5131347;27;20395;-66
2023/04/30 11:54:59;;;;;;;6.22;1.73;;;23.00;90.80;;;;;;5141748;27;20126;-66
2023/04/30 11:57:24;;;;;;;3.97;1.63;;;23.30;84.80;;;;;;5134040;27;20051;-71
2023/04/30 11:59:50;;;;;;;2.38;1.30;;;23.40;80.10;;;;;;5133367;27;20087;-69
2023/04/30 12:02:17;;;;;;;3.25;1.50;;;23.70;81.10;;;;;;5139225;27;20035;-72
2023/04/30 12:04:43;;;;;;;4.47;1.50;;;23.90;78.50;;;;;;5130732;27;20127;-73
2023/04/30 12:07:09;;;;;;;3.13;1.73;;;24.20;77.20;;;;;;5135629;27;20088;-71
2023/04/30 12:09:57;;;;;;;3.55;1.40;;;24.30;71.60;;;;;;5151092;27;20046;-71
2023/04/30 12:12:30;;;;;;;4.53;1.55;;;24.30;61.70;;;;;;5150448;27;20059;-72
2023/04/30 12:14:56;;;;;;;4.82;1.60;;;24.30;65.50;;;;;;5152188;27;20391;-72
2023/04/30 12:17:33;;;;;;;4.20;1.45;;;24.30;66.40;;;;;;5154454;27;20557;-71
2023/04/30 12:19:59;;;;;;;9.45;2.03;;;24.60;62.70;;;;;;5155037;27;20043;-71
2023/04/30 12:22:24;;;;;;;4.20;1.40;;;24.70;65.50;;;;;;5154700;27;20046;-73
2023/04/30 12:24:50;;;;;;;3.20;1.40;;;24.90;66.10;;;;;;5151977;27;20057;-72
2023/04/30 12:27:16;;;;;;;3.60;1.50;;;25.10;63.60;;;;;;5150427;27;20039;-72
2023/04/30 12:29:49;;;;;;;3.35;1.27;;;25.20;62.10;;;;;;5134590;27;20050;-72
2023/04/30 12:32:18;;;;;;;3.55;1.20;;;25.20;60.50;;;;;;5134001;27;20433;-73
2023/04/30 12:34:44;;;;;;;4.38;1.05;;;25.40;61.70;;;;;;5134587;27;20442;-75
2023/04/30 12:37:10;;;;;;;4.15;1.40;;;25.70;61.00;;;;;;5133080;27;20051;-75
2023/04/30 12:39:36;;;;;;;3.03;1.42;;;25.60;58.40;;;;;;5134413;27;20476;-72
2023/04/30 12:42:03;;;;;;;2.80;1.40;;;25.60;58.70;;;;;;5132745;27;20043;-73
2023/04/30 12:44:28;;;;;;;3.95;1.30;;;25.70;59.20;;;;;;5134684;27;20058;-74
2023/04/30 12:46:56;;;;;;;4.32;1.10;;;25.90;58.40;;;;;;5133463;27;20047;-77
2023/04/30 12:49:27;;;;;;;2.35;1.30;;;26.20;56.70;;;;;;5127848;27;20054;-75
2023/04/30 12:52:22;;;;;;;6.88;1.38;;;26.20;54.00;;;;;;5153533;27;20066;-79
2023/04/30 12:54:47;;;;;;;4.03;1.60;;;26.20;53.80;;;;;;5154812;27;20054;-81